Date,TemperatureHighF,TemperatureAvgF,TemperatureLowF,DewpointHighF,DewpointAvgF,DewpointLowF,HumidityHigh,HumidityAvg,HumidityLow,PressureMaxIn,PressureMinIn,WindSpeedMaxMPH,WindSpeedAvgMPH,GustSpeedMaxMPH,PrecipitationSumIn
2013-8-1,80,69,58,66,62,57,99,81,57,29.97,29.80,5,1,15,0.01
2013-8-2,82,71,64,69,62,56,99,78,43,29.81,29.68,5,1,13,0.39
2013-8-3,80,70,61,63,59,56,94,69,46,29.77,29.67,8,2,17,0.00
2013-8-4,78,68,59,63,56,52,85,68,43,29.79,29.68,7,2,14,0.00
2013-8-5,76,64,53,54,48,41,89,60,30,29.96,29.79,9,3,23,0.00
2013-8-6,76,62,46,55,49,44,96,67,35,30.08,29.96,2,0,8,0.00
2013-8-7,77,65,51,62,56,50,98,75,42,30.11,30.03,3,0,11,0.00
2013-8-8,84,73,62,70,65,54,96,77,62,30.05,29.91,5,1,13,0.06
2013-8-9,74,72,68,72,70,68,99,94,85,29.94,29.64,5,1,13,1.60
2013-8-10,81,72,58,71,61,51,99,72,36,29.94,29.69,10,3,23,0.01
2013-8-11,79,66,52,60,54,51,97,70,38,29.99,29.91,7,1,14,0.00
2013-8-12,81,68,56,62,57,53,98,71,41,29.94,29.83,5,1,13,0.00
2013-8-13,74,67,62,67,64,59,98,89,75,29.84,29.61,1,0,4,0.00
2013-8-14,74,66,60,64,55,50,99,71,45,29.85,29.58,11,4,22,0.01
2013-8-15,76,64,52,56,52,48,90,67,41,30.02,29.85,7,2,14,0.00
2013-8-16,79,65,52,59,54,50,95,72,42,30.11,30.01,6,1,15,0.00
2013-8-17,77,65,54,61,56,53,98,76,48,30.21,30.10,2,0,9,0.00
2013-8-18,81,67,54,66,60,53,98,79,56,30.20,30.00,2,0,11,0.00
2013-8-19,81,70,59,64,61,58,95,73,51,30.00,29.85,6,1,12,0.00
2013-8-20,86,73,62,68,63,60,93,73,43,30.00,29.89,4,0,9,0.00
2013-8-21,89,74,60,68,64,60,98,75,44,30.06,29.93,4,0,10,0.00
2013-8-22,89,76,64,70,66,62,92,72,45,29.94,29.73,6,1,13,0.00
2013-8-23,82,71,61,68,60,50,87,69,37,30.05,29.73,4,1,12,0.00
2013-8-24,76,63,50,53,48,43,93,63,34,30.25,30.05,2,0,6,0.00
2013-8-25,78,64,50,58,52,48,96,68,38,30.29,30.08,2,0,7,0.00
2013-8-26,81,72,63,67,62,55,89,73,60,30.08,29.77,8,2,15,0.01
2013-8-27,82,73,63,68,65,61,96,79,55,29.82,29.75,1,0,7,0.00
2013-8-28,80,68,59,69,63,58,99,87,60,29.92,29.79,2,0,9,0.00
2013-8-29,66,64,62,65,61,58,98,89,77,30.02,29.89,1,0,11,0.02
2013-8-30,84,71,61,68,63,58,94,78,55,29.96,29.72,5,1,11,0.00
2013-8-31,81,74,68,73,69,65,95,85,74,29.76,29.69,4,0,8,0.02